sensor_id;sensor_type;location;lat;lon;timestamp;P1;durP1;ratioP1;P2;durP2;ratioP2
24663;SDS011;12791;50.992;13.788;2023-06-19T00:01:54;9.48;;;8.77;;
24663;SDS011;12791;50.992;13.788;2023-06-19T00:04:22;9.32;;;8.45;;
24663;SDS011;12791;50.992;13.788;2023-06-19T00:06:49;10.00;;;9.20;;
24663;SDS011;12791;50.992;13.788;2023-06-19T00:09:15;9.20;;;8.40;;
24663;SDS011;12791;50.992;13.788;2023-06-19T00:11:42;8.85;;;8.05;;
24663;SDS011;12791;50.992;13.788;2023-06-19T00:14:09;9.32;;;8.55;;
24663;SDS011;12791;50.992;13.788;2023-06-19T00:16:35;8.90;;;8.20;;
24663;SDS011;12791;50.992;13.788;2023-06-19T00:19:02;8.57;;;7.97;;
24663;SDS011;12791;50.992;13.788;2023-06-19T00:21:30;9.50;;;8.73;;
24663;SDS011;12791;50.992;13.788;2023-06-19T00:23:57;9.27;;;8.48;;
24663;SDS011;12791;50.992;13.788;2023-06-19T00:26:23;9.43;;;8.63;;
24663;SDS011;12791;50.992;13.788;2023-06-19T00:28:50;9.32;;;8.52;;
24663;SDS011;12791;50.992;13.788;2023-06-19T00:31:16;9.25;;;8.45;;
24663;SDS011;12791;50.992;13.788;2023-06-19T00:33:44;10.38;;;9.30;;
24663;SDS011;12791;50.992;13.788;2023-06-19T00:36:12;9.50;;;8.60;;
24663;SDS011;12791;50.992;13.788;2023-06-19T00:38:41;9.50;;;8.77;;
24663;SDS011;12791;50.992;13.788;2023-06-19T00:41:08;9.70;;;8.90;;
24663;SDS011;12791;50.992;13.788;2023-06-19T00:43:35;9.27;;;8.48;;
24663;SDS011;12791;50.992;13.788;2023-06-19T00:46:02;9.13;;;8.40;;
24663;SDS011;12791;50.992;13.788;2023-06-19T00:48:29;10.18;;;9.30;;
24663;SDS011;12791;50.992;13.788;2023-06-19T00:50:57;8.43;;;7.82;;
24663;SDS011;12791;50.992;13.788;2023-06-19T00:53:24;9.02;;;8.30;;
24663;SDS011;12791;50.992;13.788;2023-06-19T00:55:53;9.93;;;8.23;;
24663;SDS011;12791;50.992;13.788;2023-06-19T00:58:22;9.32;;;8.63;;
24663;SDS011;12791;50.992;13.788;2023-06-19T01:00:49;9.70;;;8.90;;
24663;SDS011;12791;50.992;13.788;2023-06-19T01:03:16;9.07;;;8.38;;
24663;SDS011;12791;50.992;13.788;2023-06-19T01:05:43;9.70;;;8.90;;
24663;SDS011;12791;50.992;13.788;2023-06-19T01:08:14;9.35;;;8.57;;
24663;SDS011;12791;50.992;13.788;2023-06-19T01:10:51;9.68;;;8.90;;
24663;SDS011;12791;50.992;13.788;2023-06-19T01:13:27;10.23;;;9.38;;
24663;SDS011;12791;50.992;13.788;2023-06-19T01:16:00;9.90;;;9.05;;
24663;SDS011;12791;50.992;13.788;2023-06-19T01:18:29;9.57;;;8.68;;
24663;SDS011;12791;50.992;13.788;2023-06-19T01:21:08;9.80;;;9.00;;
24663;SDS011;12791;50.992;13.788;2023-06-19T01:23:37;9.88;;;9.00;;
24663;SDS011;12791;50.992;13.788;2023-06-19T01:26:03;10.00;;;9.10;;
24663;SDS011;12791;50.992;13.788;2023-06-19T01:28:31;10.10;;;9.25;;
24663;SDS011;12791;50.992;13.788;2023-06-19T01:30:58;9.15;;;8.45;;
24663;SDS011;12791;50.992;13.788;2023-06-19T01:33:28;11.65;;;10.65;;
24663;SDS011;12791;50.992;13.788;2023-06-19T01:35:56;10.73;;;9.82;;
24663;SDS011;12791;50.992;13.788;2023-06-19T01:38:24;12.27;;;11.25;;
24663;SDS011;12791;50.992;13.788;2023-06-19T01:40:54;11.57;;;10.57;;
24663;SDS011;12791;50.992;13.788;2023-06-19T01:43:22;12.80;;;11.52;;
24663;SDS011;12791;50.992;13.788;2023-06-19T01:45:50;12.13;;;11.02;;
24663;SDS011;12791;50.992;13.788;2023-06-19T01:48:18;11.70;;;10.70;;
24663;SDS011;12791;50.992;13.788;2023-06-19T01:50:45;11.57;;;10.48;;
24663;SDS011;12791;50.992;13.788;2023-06-19T01:53:12;12.05;;;11.00;;
24663;SDS011;12791;50.992;13.788;2023-06-19T01:55:38;12.98;;;11.68;;
24663;SDS011;12791;50.992;13.788;2023-06-19T01:58:06;9.82;;;9.07;;
24663;SDS011;12791;50.992;13.788;2023-06-19T02:00:33;11.77;;;10.77;;
24663;SDS011;12791;50.992;13.788;2023-06-19T02:03:02;12.77;;;11.48;;
24663;SDS011;12791;50.992;13.788;2023-06-19T02:05:29;11.10;;;10.10;;
24663;SDS011;12791;50.992;13.788;2023-06-19T02:07:56;11.50;;;10.50;;
24663;SDS011;12791;50.992;13.788;2023-06-19T02:10:23;12.80;;;11.60;;
24663;SDS011;12791;50.992;13.788;2023-06-19T02:12:49;12.88;;;11.65;;
24663;SDS011;12791;50.992;13.788;2023-06-19T02:15:17;12.55;;;11.32;;
24663;SDS011;12791;50.992;13.788;2023-06-19T02:17:44;12.68;;;11.68;;
24663;SDS011;12791;50.992;13.788;2023-06-19T02:20:11;12.60;;;11.50;;
24663;SDS011;12791;50.992;13.788;2023-06-19T02:22:37;12.02;;;11.07;;
24663;SDS011;12791;50.992;13.788;2023-06-19T02:25:04;12.52;;;11.48;;
24663;SDS011;12791;50.992;13.788;2023-06-19T02:27:31;12.02;;;10.95;;
24663;SDS011;12791;50.992;13.788;2023-06-19T02:29:58;11.82;;;10.93;;
24663;SDS011;12791;50.992;13.788;2023-06-19T02:32:26;11.90;;;10.90;;
24663;SDS011;12791;50.992;13.788;2023-06-19T02:34:52;11.88;;;10.77;;
24663;SDS011;12791;50.992;13.788;2023-06-19T02:37:19;11.25;;;10.35;;
24663;SDS011;12791;50.992;13.788;2023-06-19T02:39:45;11.32;;;10.43;;
24663;SDS011;12791;50.992;13.788;2023-06-19T02:42:12;11.00;;;10.10;;
24663;SDS011;12791;50.992;13.788;2023-06-19T02:44:39;11.70;;;10.70;;
24663;SDS011;12791;50.992;13.788;2023-06-19T02:47:07;11.93;;;11.02;;
24663;SDS011;12791;50.992;13.788;2023-06-19T02:49:35;11.32;;;10.32;;
24663;SDS011;12791;50.992;13.788;2023-06-19T02:52:02;11.55;;;10.55;;
24663;SDS011;12791;50.992;13.788;2023-06-19T02:54:30;11.40;;;10.50;;
24663;SDS011;12791;50.992;13.788;2023-06-19T02:56:56;12.23;;;11.05;;
24663;SDS011;12791;50.992;13.788;2023-06-19T02:59:23;12.52;;;11.20;;
24663;SDS011;12791;50.992;13.788;2023-06-19T03:01:49;12.55;;;11.45;;
24663;SDS011;12791;50.992;13.788;2023-06-19T03:04:16;11.65;;;10.60;;
24663;SDS011;12791;50.992;13.788;2023-06-19T03:06:44;12.68;;;11.50;;
24663;SDS011;12791;50.992;13.788;2023-06-19T03:09:11;12.82;;;11.73;;
24663;SDS011;12791;50.992;13.788;2023-06-19T03:11:38;12.32;;;11.20;;
24663;SDS011;12791;50.992;13.788;2023-06-19T03:14:05;12.48;;;11.35;;
24663;SDS011;12791;50.992;13.788;2023-06-19T03:16:32;13.02;;;11.93;;
24663;SDS011;12791;50.992;13.788;2023-06-19T03:18:59;13.88;;;12.57;;
24663;SDS011;12791;50.992;13.788;2023-06-19T03:21:26;13.00;;;11.85;;
24663;SDS011;12791;50.992;13.788;2023-06-19T03:23:54;13.43;;;12.13;;
24663;SDS011;12791;50.992;13.788;2023-06-19T03:26:21;15.05;;;13.68;;
24663;SDS011;12791;50.992;13.788;2023-06-19T03:28:49;14.65;;;13.15;;
24663;SDS011;12791;50.992;13.788;2023-06-19T03:31:16;14.23;;;12.63;;
24663;SDS011;12791;50.992;13.788;2023-06-19T03:33:43;14.25;;;13.05;;
24663;SDS011;12791;50.992;13.788;2023-06-19T03:36:09;14.23;;;12.88;;
24663;SDS011;12791;50.992;13.788;2023-06-19T03:38:36;13.65;;;12.52;;
24663;SDS011;12791;50.992;13.788;2023-06-19T03:41:04;14.98;;;13.68;;
24663;SDS011;12791;50.992;13.788;2023-06-19T03:43:30;13.88;;;12.68;;
24663;SDS011;12791;50.992;13.788;2023-06-19T03:45:57;13.85;;;12.73;;
24663;SDS011;12791;50.992;13.788;2023-06-19T03:48:23;14.40;;;13.10;;
24663;SDS011;12791;50.992;13.788;2023-06-19T03:50:50;14.13;;;12.55;;
24663;SDS011;12791;50.992;13.788;2023-06-19T03:53:16;14.52;;;13.23;;
24663;SDS011;12791;50.992;13.788;2023-06-19T03:55:43;13.15;;;11.95;;
24663;SDS011;12791;50.992;13.788;2023-06-19T03:58:11;14.05;;;12.73;;
24663;SDS011;12791;50.992;13.788;2023-06-19T04:00:38;13.75;;;12.63;;
24663;SDS011;12791;50.992;13.788;2023-06-19T04:03:06;14.10;;;12.82;;
24663;SDS011;12791;50.992;13.788;2023-06-19T04:05:34;14.82;;;13.52;;
24663;SDS011;12791;50.992;13.788;2023-06-19T04:08:00;14.43;;;13.13;;
24663;SDS011;12791;50.992;13.788;2023-06-19T04:10:27;14.13;;;12.85;;
24663;SDS011;12791;50.992;13.788;2023-06-19T04:12:54;13.40;;;12.23;;
24663;SDS011;12791;50.992;13.788;2023-06-19T04:15:22;15.02;;;13.50;;
24663;SDS011;12791;50.992;13.788;2023-06-19T04:17:48;14.98;;;13.63;;
24663;SDS011;12791;50.992;13.788;2023-06-19T04:20:15;14.98;;;13.68;;
24663;SDS011;12791;50.992;13.788;2023-06-19T04:22:42;14.13;;;12.93;;
24663;SDS011;12791;50.992;13.788;2023-06-19T04:25:09;13.90;;;12.65;;
24663;SDS011;12791;50.992;13.788;2023-06-19T04:27:36;14.13;;;12.88;;
24663;SDS011;12791;50.992;13.788;2023-06-19T04:30:03;14.57;;;13.15;;
24663;SDS011;12791;50.992;13.788;2023-06-19T04:32:32;13.27;;;12.07;;
24663;SDS011;12791;50.992;13.788;2023-06-19T04:35:00;13.88;;;12.68;;
24663;SDS011;12791;50.992;13.788;2023-06-19T04:37:26;13.48;;;12.38;;
24663;SDS011;12791;50.992;13.788;2023-06-19T04:39:53;13.63;;;12.38;;
24663;SDS011;12791;50.992;13.788;2023-06-19T04:42:21;14.10;;;12.80;;
24663;SDS011;12791;50.992;13.788;2023-06-19T04:44:47;13.43;;;12.23;;
24663;SDS011;12791;50.992;13.788;2023-06-19T04:47:16;12.77;;;11.68;;
24663;SDS011;12791;50.992;13.788;2023-06-19T04:49:45;14.48;;;13.07;;
24663;SDS011;12791;50.992;13.788;2023-06-19T04:52:12;14.48;;;13.18;;
24663;SDS011;12791;50.992;13.788;2023-06-19T04:54:39;14.02;;;12.63;;
24663;SDS011;12791;50.992;13.788;2023-06-19T04:57:05;14.35;;;13.15;;
24663;SDS011;12791;50.992;13.788;2023-06-19T04:59:32;14.63;;;13.10;;
24663;SDS011;12791;50.992;13.788;2023-06-19T05:01:59;13.65;;;12.30;;
24663;SDS011;12791;50.992;13.788;2023-06-19T05:04:26;14.02;;;12.93;;
24663;SDS011;12791;50.992;13.788;2023-06-19T05:06:54;14.45;;;13.13;;
24663;SDS011;12791;50.992;13.788;2023-06-19T05:09:20;14.70;;;13.23;;
24663;SDS011;12791;50.992;13.788;2023-06-19T05:11:47;14.48;;;13.10;;
24663;SDS011;12791;50.992;13.788;2023-06-19T05:14:13;13.15;;;12.15;;
24663;SDS011;12791;50.992;13.788;2023-06-19T05:16:40;13.15;;;11.98;;
24663;SDS011;12791;50.992;13.788;2023-06-19T05:19:07;13.05;;;11.85;;
24663;SDS011;12791;50.992;13.788;2023-06-19T05:21:33;13.77;;;12.57;;
24663;SDS011;12791;50.992;13.788;2023-06-19T05:24:01;13.85;;;12.68;;
24663;SDS011;12791;50.992;13.788;2023-06-19T05:26:28;13.52;;;12.20;;
24663;SDS011;12791;50.992;13.788;2023-06-19T05:28:54;13.35;;;12.15;;
24663;SDS011;12791;50.992;13.788;2023-06-19T05:31:21;12.02;;;10.93;;
24663;SDS011;12791;50.992;13.788;2023-06-19T05:33:48;11.52;;;10.63;;
24663;SDS011;12791;50.992;13.788;2023-06-19T05:36:14;12.00;;;11.10;;
24663;SDS011;12791;50.992;13.788;2023-06-19T05:38:41;12.20;;;11.15;;
24663;SDS011;12791;50.992;13.788;2023-06-19T05:41:09;12.70;;;11.60;;
24663;SDS011;12791;50.992;13.788;2023-06-19T05:43:36;12.45;;;11.35;;
24663;SDS011;12791;50.992;13.788;2023-06-19T05:46:02;11.05;;;10.15;;
24663;SDS011;12791;50.992;13.788;2023-06-19T05:48:29;12.32;;;11.30;;
24663;SDS011;12791;50.992;13.788;2023-06-19T05:50:55;11.88;;;10.93;;
24663;SDS011;12791;50.992;13.788;2023-06-19T05:53:22;11.65;;;10.65;;
24663;SDS011;12791;50.992;13.788;2023-06-19T05:55:49;11.93;;;10.77;;
24663;SDS011;12791;50.992;13.788;2023-06-19T05:58:17;11.68;;;10.68;;
24663;SDS011;12791;50.992;13.788;2023-06-19T06:00:45;13.43;;;12.23;;
24663;SDS011;12791;50.992;13.788;2023-06-19T06:03:11;12.40;;;11.18;;
24663;SDS011;12791;50.992;13.788;2023-06-19T06:05:38;12.07;;;11.18;;
24663;SDS011;12791;50.992;13.788;2023-06-19T06:08:05;12.52;;;11.50;;
24663;SDS011;12791;50.992;13.788;2023-06-19T06:10:32;12.70;;;11.57;;
24663;SDS011;12791;50.992;13.788;2023-06-19T06:12:59;11.15;;;10.18;;
24663;SDS011;12791;50.992;13.788;2023-06-19T06:15:27;11.65;;;10.75;;
24663;SDS011;12791;50.992;13.788;2023-06-19T06:17:53;11.88;;;10.88;;
24663;SDS011;12791;50.992;13.788;2023-06-19T06:20:20;13.02;;;11.93;;
24663;SDS011;12791;50.992;13.788;2023-06-19T06:22:46;12.77;;;11.70;;
24663;SDS011;12791;50.992;13.788;2023-06-19T06:25:13;12.50;;;11.40;;
24663;SDS011;12791;50.992;13.788;2023-06-19T06:27:40;13.40;;;12.20;;
24663;SDS011;12791;50.992;13.788;2023-06-19T06:30:07;12.68;;;11.40;;
24663;SDS011;12791;50.992;13.788;2023-06-19T06:32:38;13.27;;;12.02;;
24663;SDS011;12791;50.992;13.788;2023-06-19T06:35:05;13.10;;;11.80;;
24663;SDS011;12791;50.992;13.788;2023-06-19T06:37:32;12.85;;;11.68;;
24663;SDS011;12791;50.992;13.788;2023-06-19T06:39:58;11.90;;;10.88;;
24663;SDS011;12791;50.992;13.788;2023-06-19T06:42:25;13.25;;;11.95;;
24663;SDS011;12791;50.992;13.788;2023-06-19T06:44:52;12.13;;;11.13;;
24663;SDS011;12791;50.992;13.788;2023-06-19T06:47:18;11.50;;;10.50;;
24663;SDS011;12791;50.992;13.788;2023-06-19T06:49:46;11.60;;;10.70;;
24663;SDS011;12791;50.992;13.788;2023-06-19T06:52:13;10.70;;;9.90;;
24663;SDS011;12791;50.992;13.788;2023-06-19T06:54:40;11.95;;;11.02;;
24663;SDS011;12791;50.992;13.788;2023-06-19T06:57:06;11.02;;;10.13;;
24663;SDS011;12791;50.992;13.788;2023-06-19T06:59:33;10.60;;;9.77;;
24663;SDS011;12791;50.992;13.788;2023-06-19T07:01:59;11.55;;;10.63;;
24663;SDS011;12791;50.992;13.788;2023-06-19T07:04:26;11.65;;;10.75;;
24663;SDS011;12791;50.992;13.788;2023-06-19T07:06:54;10.98;;;10.18;;
24663;SDS011;12791;50.992;13.788;2023-06-19T07:09:20;11.10;;;10.10;;
24663;SDS011;12791;50.992;13.788;2023-06-19T07:11:47;10.57;;;9.75;;
24663;SDS011;12791;50.992;13.788;2023-06-19T07:14:14;10.57;;;9.77;;
24663;SDS011;12791;50.992;13.788;2023-06-19T07:16:42;11.07;;;10.18;;
24663;SDS011;12791;50.992;13.788;2023-06-19T07:19:09;11.32;;;10.32;;
24663;SDS011;12791;50.992;13.788;2023-06-19T07:21:36;10.52;;;9.60;;
24663;SDS011;12791;50.992;13.788;2023-06-19T07:24:04;10.93;;;10.07;;
24663;SDS011;12791;50.992;13.788;2023-06-19T07:26:31;10.40;;;9.70;;
24663;SDS011;12791;50.992;13.788;2023-06-19T07:28:58;10.73;;;9.90;;
24663;SDS011;12791;50.992;13.788;2023-06-19T07:31:24;11.00;;;10.15;;
24663;SDS011;12791;50.992;13.788;2023-06-19T07:33:51;10.32;;;9.52;;
24663;SDS011;12791;50.992;13.788;2023-06-19T07:36:17;11.40;;;10.50;;
24663;SDS011;12791;50.992;13.788;2023-06-19T07:38:44;11.68;;;10.75;;
24663;SDS011;12791;50.992;13.788;2023-06-19T07:41:13;10.95;;;9.85;;
24663;SDS011;12791;50.992;13.788;2023-06-19T07:43:39;15.05;;;13.30;;
24663;SDS011;12791;50.992;13.788;2023-06-19T07:46:06;14.27;;;11.93;;
24663;SDS011;12791;50.992;13.788;2023-06-19T07:48:33;12.25;;;11.15;;
24663;SDS011;12791;50.992;13.788;2023-06-19T07:50:59;11.32;;;10.32;;
24663;SDS011;12791;50.992;13.788;2023-06-19T07:53:26;10.45;;;9.68;;
24663;SDS011;12791;50.992;13.788;2023-06-19T07:55:52;10.68;;;9.77;;
24663;SDS011;12791;50.992;13.788;2023-06-19T07:58:20;10.27;;;9.45;;
24663;SDS011;12791;50.992;13.788;2023-06-19T08:00:47;11.10;;;10.18;;
24663;SDS011;12791;50.992;13.788;2023-06-19T08:03:13;11.32;;;10.43;;
24663;SDS011;12791;50.992;13.788;2023-06-19T08:05:40;11.23;;;10.32;;
24663;SDS011;12791;50.992;13.788;2023-06-19T08:08:07;10.60;;;9.80;;
24663;SDS011;12791;50.992;13.788;2023-06-19T08:10:33;11.05;;;10.07;;
24663;SDS011;12791;50.992;13.788;2023-06-19T08:13:00;11.68;;;10.68;;
24663;SDS011;12791;50.992;13.788;2023-06-19T08:15:28;10.57;;;9.65;;
24663;SDS011;12791;50.992;13.788;2023-06-19T08:17:54;10.43;;;9.43;;
24663;SDS011;12791;50.992;13.788;2023-06-19T08:20:21;11.50;;;10.55;;
24663;SDS011;12791;50.992;13.788;2023-06-19T08:22:47;10.52;;;9.73;;
24663;SDS011;12791;50.992;13.788;2023-06-19T08:25:14;9.45;;;8.75;;
24663;SDS011;12791;50.992;13.788;2023-06-19T08:27:41;10.45;;;9.35;;
24663;SDS011;12791;50.992;13.788;2023-06-19T08:30:10;10.90;;;9.80;;
24663;SDS011;12791;50.992;13.788;2023-06-19T08:32:38;10.70;;;9.80;;
24663;SDS011;12791;50.992;13.788;2023-06-19T08:35:05;10.48;;;9.57;;
24663;SDS011;12791;50.992;13.788;2023-06-19T08:37:32;10.00;;;9.23;;
24663;SDS011;12791;50.992;13.788;2023-06-19T08:39:59;11.10;;;10.18;;
24663;SDS011;12791;50.992;13.788;2023-06-19T08:42:25;9.93;;;9.23;;
24663;SDS011;12791;50.992;13.788;2023-06-19T08:44:53;8.63;;;8.02;;
24663;SDS011;12791;50.992;13.788;2023-06-19T08:47:19;10.48;;;9.57;;
24663;SDS011;12791;50.992;13.788;2023-06-19T08:49:47;11.48;;;10.38;;
24663;SDS011;12791;50.992;13.788;2023-06-19T08:52:15;10.85;;;9.95;;
24663;SDS011;12791;50.992;13.788;2023-06-19T08:54:41;10.52;;;9.65;;
24663;SDS011;12791;50.992;13.788;2023-06-19T08:57:09;11.45;;;10.35;;
24663;SDS011;12791;50.992;13.788;2023-06-19T08:59:36;10.77;;;9.82;;
24663;SDS011;12791;50.992;13.788;2023-06-19T09:02:03;10.85;;;9.93;;
24663;SDS011;12791;50.992;13.788;2023-06-19T09:04:30;11.60;;;10.60;;
24663;SDS011;12791;50.992;13.788;2023-06-19T09:06:59;10.50;;;9.70;;
24663;SDS011;12791;50.992;13.788;2023-06-19T09:09:27;12.13;;;10.98;;
24663;SDS011;12791;50.992;13.788;2023-06-19T09:11:56;11.20;;;10.20;;
24663;SDS011;12791;50.992;13.788;2023-06-19T09:14:24;11.65;;;10.75;;
24663;SDS011;12791;50.992;13.788;2023-06-19T09:19:23;11.27;;;10.27;;
24663;SDS011;12791;50.992;13.788;2023-06-19T09:21:49;12.05;;;11.05;;
24663;SDS011;12791;50.992;13.788;2023-06-19T09:24:17;10.98;;;9.93;;
24663;SDS011;12791;50.992;13.788;2023-06-19T09:26:44;11.85;;;10.85;;
24663;SDS011;12791;50.992;13.788;2023-06-19T09:29:11;12.23;;;11.13;;
24663;SDS011;12791;50.992;13.788;2023-06-19T09:31:38;12.05;;;11.15;;
24663;SDS011;12791;50.992;13.788;2023-06-19T09:34:06;11.30;;;10.32;;
24663;SDS011;12791;50.992;13.788;2023-06-19T09:36:33;11.13;;;10.23;;
24663;SDS011;12791;50.992;13.788;2023-06-19T09:39:01;12.27;;;11.15;;
24663;SDS011;12791;50.992;13.788;2023-06-19T09:41:30;13.25;;;10.40;;
24663;SDS011;12791;50.992;13.788;2023-06-19T09:43:58;10.52;;;9.63;;
24663;SDS011;12791;50.992;13.788;2023-06-19T09:46:26;10.70;;;9.90;;
24663;SDS011;12791;50.992;13.788;2023-06-19T09:48:56;11.52;;;10.60;;
24663;SDS011;12791;50.992;13.788;2023-06-19T09:51:27;10.85;;;10.05;;
24663;SDS011;12791;50.992;13.788;2023-06-19T09:53:57;10.43;;;9.73;;
24663;SDS011;12791;50.992;13.788;2023-06-19T09:56:26;10.80;;;10.00;;
24663;SDS011;12791;50.992;13.788;2023-06-19T09:58:56;12.27;;;11.23;;
24663;SDS011;12791;50.992;13.788;2023-06-19T10:01:25;12.07;;;11.02;;
24663;SDS011;12791;50.992;13.788;2023-06-19T10:04:01;11.52;;;10.57;;
24663;SDS011;12791;50.992;13.788;2023-06-19T10:06:29;11.80;;;10.65;;
24663;SDS011;12791;50.992;13.788;2023-06-19T10:08:56;12.65;;;11.55;;
24663;SDS011;12791;50.992;13.788;2023-06-19T10:11:43;11.55;;;10.57;;
24663;SDS011;12791;50.992;13.788;2023-06-19T10:14:13;12.00;;;11.10;;
24663;SDS011;12791;50.992;13.788;2023-06-19T10:16:43;10.65;;;9.82;;
24663;SDS011;12791;50.992;13.788;2023-06-19T10:19:16;11.35;;;10.32;;
24663;SDS011;12791;50.992;13.788;2023-06-19T10:21:44;12.25;;;11.15;;
24663;SDS011;12791;50.992;13.788;2023-06-19T10:24:14;12.27;;;11.18;;
24663;SDS011;12791;50.992;13.788;2023-06-19T10:26:43;11.30;;;10.40;;
24663;SDS011;12791;50.992;13.788;2023-06-19T10:29:15;11.88;;;10.88;;
24663;SDS011;12791;50.992;13.788;2023-06-19T10:31:42;12.45;;;11.35;;
24663;SDS011;12791;50.992;13.788;2023-06-19T10:34:09;12.32;;;11.20;;
24663;SDS011;12791;50.992;13.788;2023-06-19T10:36:36;12.40;;;11.35;;
24663;SDS011;12791;50.992;13.788;2023-06-19T10:39:03;12.07;;;11.07;;
24663;SDS011;12791;50.992;13.788;2023-06-19T10:41:31;12.88;;;11.85;;
24663;SDS011;12791;50.992;13.788;2023-06-19T10:43:58;12.93;;;11.75;;
24663;SDS011;12791;50.992;13.788;2023-06-19T10:46:29;12.43;;;11.40;;
24663;SDS011;12791;50.992;13.788;2023-06-19T10:48:57;11.95;;;11.07;;
24663;SDS011;12791;50.992;13.788;2023-06-19T10:51:26;11.77;;;10.70;;
24663;SDS011;12791;50.992;13.788;2023-06-19T10:53:53;11.48;;;10.48;;
24663;SDS011;12791;50.992;13.788;2023-06-19T10:56:20;11.82;;;10.77;;
24663;SDS011;12791;50.992;13.788;2023-06-19T10:58:47;12.70;;;11.63;;
24663;SDS011;12791;50.992;13.788;2023-06-19T11:01:13;11.23;;;10.23;;
24663;SDS011;12791;50.992;13.788;2023-06-19T11:03:42;12.60;;;11.02;;
24663;SDS011;12791;50.992;13.788;2023-06-19T11:06:08;11.90;;;10.85;;
24663;SDS011;12791;50.992;13.788;2023-06-19T11:08:35;11.57;;;10.68;;
24663;SDS011;12791;50.992;13.788;2023-06-19T11:11:01;11.85;;;10.80;;
24663;SDS011;12791;50.992;13.788;2023-06-19T11:13:28;12.68;;;11.32;;
24663;SDS011;12791;50.992;13.788;2023-06-19T11:15:55;11.30;;;10.40;;
24663;SDS011;12791;50.992;13.788;2023-06-19T11:18:23;10.90;;;10.00;;
24663;SDS011;12791;50.992;13.788;2023-06-19T11:20:52;11.55;;;10.55;;
24663;SDS011;12791;50.992;13.788;2023-06-19T11:23:24;10.95;;;10.02;;
24663;SDS011;12791;50.992;13.788;2023-06-19T11:25:53;11.73;;;10.55;;
24663;SDS011;12791;50.992;13.788;2023-06-19T11:28:21;11.82;;;10.88;;
24663;SDS011;12791;50.992;13.788;2023-06-19T11:30:48;11.55;;;10.65;;
24663;SDS011;12791;50.992;13.788;2023-06-19T11:33:23;10.98;;;10.07;;
24663;SDS011;12791;50.992;13.788;2023-06-19T11:35:49;11.65;;;10.43;;
24663;SDS011;12791;50.992;13.788;2023-06-19T11:38:18;11.38;;;10.32;;
24663;SDS011;12791;50.992;13.788;2023-06-19T11:40:46;11.00;;;10.10;;
24663;SDS011;12791;50.992;13.788;2023-06-19T11:43:23;10.88;;;9.98;;
24663;SDS011;12791;50.992;13.788;2023-06-19T11:45:50;10.77;;;9.88;;
24663;SDS011;12791;50.992;13.788;2023-06-19T11:48:23;10.73;;;9.68;;
24663;SDS011;12791;50.992;13.788;2023-06-19T11:50:51;10.45;;;9.55;;
24663;SDS011;12791;50.992;13.788;2023-06-19T11:53:19;10.40;;;9.57;;
24663;SDS011;12791;50.992;13.788;2023-06-19T11:55:46;10.52;;;9.52;;
24663;SDS011;12791;50.992;13.788;2023-06-19T11:58:12;10.52;;;9.63;;
24663;SDS011;12791;50.992;13.788;2023-06-19T12:00:40;8.73;;;8.13;;
24663;SDS011;12791;50.992;13.788;2023-06-19T12:03:07;9.55;;;8.60;;
24663;SDS011;12791;50.992;13.788;2023-06-19T12:05:34;10.43;;;9.52;;
24663;SDS011;12791;50.992;13.788;2023-06-19T12:08:02;9.10;;;8.32;;
24663;SDS011;12791;50.992;13.788;2023-06-19T12:10:30;8.93;;;8.13;;
24663;SDS011;12791;50.992;13.788;2023-06-19T12:12:57;8.25;;;7.65;;
24663;SDS011;12791;50.992;13.788;2023-06-19T12:15:23;8.45;;;7.75;;
24663;SDS011;12791;50.992;13.788;2023-06-19T12:17:51;9.35;;;7.28;;
24663;SDS011;12791;50.992;13.788;2023-06-19T12:20:17;7.97;;;7.18;;
24663;SDS011;12791;50.992;13.788;2023-06-19T12:22:44;8.15;;;7.45;;
24663;SDS011;12791;50.992;13.788;2023-06-19T12:25:12;8.13;;;7.43;;
24663;SDS011;12791;50.992;13.788;2023-06-19T12:27:38;7.85;;;7.25;;
24663;SDS011;12791;50.992;13.788;2023-06-19T12:30:06;8.32;;;7.53;;
24663;SDS011;12791;50.992;13.788;2023-06-19T12:32:34;7.90;;;7.35;;
24663;SDS011;12791;50.992;13.788;2023-06-19T12:35:00;8.10;;;7.38;;
24663;SDS011;12791;50.992;13.788;2023-06-19T12:37:28;7.22;;;6.70;;
24663;SDS011;12791;50.992;13.788;2023-06-19T12:39:54;8.35;;;7.65;;
24663;SDS011;12791;50.992;13.788;2023-06-19T12:42:22;7.40;;;6.70;;
24663;SDS011;12791;50.992;13.788;2023-06-19T12:44:49;8.55;;;7.70;;
24663;SDS011;12791;50.992;13.788;2023-06-19T12:47:15;8.32;;;7.53;;
24663;SDS011;12791;50.992;13.788;2023-06-19T12:49:43;7.90;;;7.30;;
24663;SDS011;12791;50.992;13.788;2023-06-19T12:52:09;8.02;;;7.47;;
24663;SDS011;12791;50.992;13.788;2023-06-19T12:54:36;8.63;;;7.93;;
24663;SDS011;12791;50.992;13.788;2023-06-19T12:57:03;8.43;;;7.82;;
24663;SDS011;12791;50.992;13.788;2023-06-19T12:59:32;8.57;;;7.88;;
24663;SDS011;12791;50.992;13.788;2023-06-19T13:01:58;9.48;;;8.77;;
24663;SDS011;12791;50.992;13.788;2023-06-19T13:04:25;10.25;;;9.45;;
24663;SDS011;12791;50.992;13.788;2023-06-19T13:06:51;9.38;;;8.63;;
24663;SDS011;12791;50.992;13.788;2023-06-19T13:09:18;9.63;;;8.88;;
24663;SDS011;12791;50.992;13.788;2023-06-19T13:11:45;9.63;;;8.73;;
24663;SDS011;12791;50.992;13.788;2023-06-19T13:14:11;10.38;;;9.38;;
24663;SDS011;12791;50.992;13.788;2023-06-19T13:16:39;11.35;;;9.07;;
24663;SDS011;12791;50.992;13.788;2023-06-19T13:19:06;10.55;;;9.60;;
24663;SDS011;12791;50.992;13.788;2023-06-19T13:21:32;9.95;;;9.25;;
24663;SDS011;12791;50.992;13.788;2023-06-19T13:24:00;11.30;;;9.77;;
24663;SDS011;12791;50.992;13.788;2023-06-19T13:26:27;10.65;;;9.52;;
24663;SDS011;12791;50.992;13.788;2023-06-19T13:28:54;11.15;;;10.15;;
24663;SDS011;12791;50.992;13.788;2023-06-19T13:31:23;10.35;;;9.55;;
24663;SDS011;12791;50.992;13.788;2023-06-19T13:33:51;11.50;;;10.30;;
24663;SDS011;12791;50.992;13.788;2023-06-19T13:36:18;10.93;;;9.90;;
24663;SDS011;12791;50.992;13.788;2023-06-19T13:38:45;10.88;;;9.88;;
24663;SDS011;12791;50.992;13.788;2023-06-19T13:41:12;10.52;;;9.60;;
24663;SDS011;12791;50.992;13.788;2023-06-19T13:43:38;11.32;;;10.23;;
24663;SDS011;12791;50.992;13.788;2023-06-19T13:46:05;10.98;;;10.05;;
24663;SDS011;12791;50.992;13.788;2023-06-19T13:48:32;10.88;;;9.77;;
24663;SDS011;12791;50.992;13.788;2023-06-19T13:51:00;11.00;;;10.10;;
24663;SDS011;12791;50.992;13.788;2023-06-19T13:53:27;10.65;;;9.85;;
24663;SDS011;12791;50.992;13.788;2023-06-19T13:55:54;10.80;;;9.82;;
24663;SDS011;12791;50.992;13.788;2023-06-19T13:58:21;11.55;;;10.45;;
24663;SDS011;12791;50.992;13.788;2023-06-19T14:00:48;11.02;;;10.13;;
24663;SDS011;12791;50.992;13.788;2023-06-19T14:03:14;10.57;;;9.48;;
24663;SDS011;12791;50.992;13.788;2023-06-19T14:05:41;10.65;;;9.85;;
24663;SDS011;12791;50.992;13.788;2023-06-19T14:08:09;10.88;;;10.00;;
24663;SDS011;12791;50.992;13.788;2023-06-19T14:10:36;10.73;;;9.95;;
24663;SDS011;12791;50.992;13.788;2023-06-19T14:13:02;10.00;;;9.10;;
24663;SDS011;12791;50.992;13.788;2023-06-19T14:15:29;10.27;;;9.48;;
24663;SDS011;12791;50.992;13.788;2023-06-19T14:17:56;10.45;;;9.75;;
24663;SDS011;12791;50.992;13.788;2023-06-19T14:20:22;11.32;;;10.32;;